Terminal Aerodrome Forecast
Issued by NWS

Home | Current Version | Previous Version | Text Only | Print | Product List | Glossary On
Versions: 1 2 3 4 5 6 7 8 9 10 11 12 13 14 15 16 17 18 19 20 21 22 23 24 25 26
000
FTUS46 KSEW 041724
TAFSEA
TAF
KSEA 041724Z 0418/0524 20004KT P6SM SCT020 BKN100 BKN200
      TEMPO 0418/0420 BKN013
     FM042100 23007KT P6SM FEW050 SCT200
     FM050000 26005KT P6SM SCT200
     FM050600 19005KT P6SM BKN050
     FM051200 19008KT P6SM BKN012 BKN050=

USA.gov is the U.S. government's official web portal to all federal, state and local government web resources and services.